Will Rogers World, OK

12:52 AM CDT on March 24, 2019 (GMT -0500)
Will Rogers World | | Change Station

Elev 1293 ft 35.39 °N, 97.60 °W | Updated 1 hour ago

Scattered Clouds
Scattered Clouds
52 °F
Feels Like 52 °F
N
5
Wind Variable Wind from South

Today
High -- | Low -- °F
--% Chance of Precip.
Yesterday
High -- | Low -- °F
Precip. -- in
Pressure 29.96 in
Visibility 8.0 miles
Clouds Few 3500 ft
Few 5000 ft
Scattered Clouds 25000 ft
Dew Point 52 °F
Humidity 100%
Rainfall 0.22 in
Snow Depth Not available.
7:28 AM 7:45 PM
Waning Gibbous, 87% visible
METAR KOKC 240452Z 17004KT 8SM FEW035 FEW050 SCT250 11/11 A2997 RMK AO2 SLP144 FRQ LTGIC DSNT E CB DSNT E MOV E T01110111
Pressure 29.96 in
Visibility 8.0 miles
Clouds Few 3500 ft
Few 5000 ft
Scattered Clouds 25000 ft
Dew Point 52 °F
Humidity 100%
Rainfall 0.22 in
Snow Depth Not available.
7:28 AM 7:45 PM
Waning Gibbous, 87% visible
METAR KOKC 240452Z 17004KT 8SM FEW035 FEW050 SCT250 11/11 A2997 RMK AO2 SLP144 FRQ LTGIC DSNT E CB DSNT E MOV E T01110111

Get Severe Weather Alerts

Thanks for signing up!

Be on the lookout for a verification email in your inbox.

You'll start receiving the daily forecast at 6 AM.

×

10-Day Weather Forecast

Almanac

Astronomy

Mar. 24, 2019 Rise Set
Actual Time
Civil Twilight
Nautical Twilight
Astronomical Twilight
Moon
Length of Visible Light
Length of Day
Tomorrow will be .
, % of the Moon is Illuminated

Today's Extremes

State Highs State Lows

Community

WunderPhotos

Category 6

Welcome to Category 6. This is the collective home for Weather Underground's featured writeups by Dr. Jeff Masters (right), Bob Henson (left), Chris Burt, and other regular contributors.

Nearby

Air Quality

  Air Quality AQ Index Pollutant
Not available.

Snow Depth

Station Depth Elevation

Earthquake Activity

City Distance Mag. Time & Date
Minimum magnitude displayed is 2.5.

Coastal Water Temperatures

Place Temperature

Stations

Nearby Weather Stations

Station Location Temp. Windchill Dew Point Humidity Wind Precip. Elev Updated Type
                   

Watches & Warnings

There are currently no watches in effect.